sensor_id;sensor_type;location;lat;lon;timestamp;P1;durP1;ratioP1;P2;durP2;ratioP2
55609;SDS011;41486;52.502;13.486;2023-04-25T00:01:50;2.63;;;1.50;;
55609;SDS011;41486;52.502;13.486;2023-04-25T00:04:18;2.42;;;1.35;;
55609;SDS011;41486;52.502;13.486;2023-04-25T00:06:48;3.33;;;1.88;;
55609;SDS011;41486;52.502;13.486;2023-04-25T00:09:16;1.50;;;1.40;;
55609;SDS011;41486;52.502;13.486;2023-04-25T00:11:44;2.75;;;1.67;;
55609;SDS011;41486;52.502;13.486;2023-04-25T00:14:12;1.83;;;1.40;;
55609;SDS011;41486;52.502;13.486;2023-04-25T00:16:41;2.28;;;1.10;;
55609;SDS011;41486;52.502;13.486;2023-04-25T00:19:10;1.23;;;1.00;;
55609;SDS011;41486;52.502;13.486;2023-04-25T00:21:39;3.75;;;1.33;;
55609;SDS011;41486;52.502;13.486;2023-04-25T00:24:07;1.67;;;1.10;;
55609;SDS011;41486;52.502;13.486;2023-04-25T00:26:36;2.50;;;1.15;;
55609;SDS011;41486;52.502;13.486;2023-04-25T00:29:04;2.92;;;0.90;;
55609;SDS011;41486;52.502;13.486;2023-04-25T00:31:32;1.63;;;1.20;;
55609;SDS011;41486;52.502;13.486;2023-04-25T00:34:01;1.33;;;1.23;;
55609;SDS011;41486;52.502;13.486;2023-04-25T00:36:29;1.45;;;0.95;;
55609;SDS011;41486;52.502;13.486;2023-04-25T00:38:57;2.45;;;1.13;;
55609;SDS011;41486;52.502;13.486;2023-04-25T00:41:26;1.50;;;1.10;;
55609;SDS011;41486;52.502;13.486;2023-04-25T00:43:54;4.32;;;1.75;;
55609;SDS011;41486;52.502;13.486;2023-04-25T00:46:23;5.38;;;1.15;;
55609;SDS011;41486;52.502;13.486;2023-04-25T00:48:51;2.72;;;1.55;;
55609;SDS011;41486;52.502;13.486;2023-04-25T00:51:21;3.38;;;1.52;;
55609;SDS011;41486;52.502;13.486;2023-04-25T00:53:49;1.50;;;1.20;;
55609;SDS011;41486;52.502;13.486;2023-04-25T00:56:18;4.47;;;1.20;;
55609;SDS011;41486;52.502;13.486;2023-04-25T00:58:47;5.00;;;1.40;;
55609;SDS011;41486;52.502;13.486;2023-04-25T01:01:17;1.88;;;1.58;;
55609;SDS011;41486;52.502;13.486;2023-04-25T01:03:46;2.30;;;1.52;;
55609;SDS011;41486;52.502;13.486;2023-04-25T01:06:16;5.30;;;1.33;;
55609;SDS011;41486;52.502;13.486;2023-04-25T01:08:46;2.25;;;1.27;;
55609;SDS011;41486;52.502;13.486;2023-04-25T01:11:15;1.42;;;1.25;;
55609;SDS011;41486;52.502;13.486;2023-04-25T01:13:43;3.40;;;1.75;;
55609;SDS011;41486;52.502;13.486;2023-04-25T01:16:11;3.30;;;1.27;;
55609;SDS011;41486;52.502;13.486;2023-04-25T01:18:39;3.33;;;1.75;;
55609;SDS011;41486;52.502;13.486;2023-04-25T01:21:09;2.20;;;1.60;;
55609;SDS011;41486;52.502;13.486;2023-04-25T01:23:38;1.95;;;1.40;;
55609;SDS011;41486;52.502;13.486;2023-04-25T01:26:07;3.40;;;1.50;;
55609;SDS011;41486;52.502;13.486;2023-04-25T01:28:37;2.47;;;1.38;;
55609;SDS011;41486;52.502;13.486;2023-04-25T01:31:08;4.28;;;1.63;;
55609;SDS011;41486;52.502;13.486;2023-04-25T01:33:37;2.40;;;1.50;;
55609;SDS011;41486;52.502;13.486;2023-04-25T01:36:05;2.45;;;1.20;;
55609;SDS011;41486;52.502;13.486;2023-04-25T01:38:35;5.40;;;2.50;;
55609;SDS011;41486;52.502;13.486;2023-04-25T01:41:03;2.83;;;1.40;;
55609;SDS011;41486;52.502;13.486;2023-04-25T01:43:33;3.95;;;1.73;;
55609;SDS011;41486;52.502;13.486;2023-04-25T01:46:01;5.30;;;1.23;;
55609;SDS011;41486;52.502;13.486;2023-04-25T01:48:30;4.95;;;1.70;;
55609;SDS011;41486;52.502;13.486;2023-04-25T01:50:58;3.17;;;1.70;;
55609;SDS011;41486;52.502;13.486;2023-04-25T01:53:27;6.28;;;1.70;;
55609;SDS011;41486;52.502;13.486;2023-04-25T01:55:57;6.20;;;1.58;;
55609;SDS011;41486;52.502;13.486;2023-04-25T01:58:31;5.18;;;1.33;;
55609;SDS011;41486;52.502;13.486;2023-04-25T02:01:28;6.53;;;2.00;;
55609;SDS011;41486;52.502;13.486;2023-04-25T02:04:11;2.85;;;1.50;;
55609;SDS011;41486;52.502;13.486;2023-04-25T02:06:40;2.75;;;2.20;;
55609;SDS011;41486;52.502;13.486;2023-04-25T02:09:08;2.78;;;1.45;;
55609;SDS011;41486;52.502;13.486;2023-04-25T02:11:42;5.22;;;1.52;;
55609;SDS011;41486;52.502;13.486;2023-04-25T02:14:37;4.18;;;1.50;;
55609;SDS011;41486;52.502;13.486;2023-04-25T02:17:12;5.15;;;2.28;;
55609;SDS011;41486;52.502;13.486;2023-04-25T02:19:40;2.92;;;1.85;;
55609;SDS011;41486;52.502;13.486;2023-04-25T02:22:08;5.75;;;2.00;;
55609;SDS011;41486;52.502;13.486;2023-04-25T02:24:36;2.00;;;1.70;;
55609;SDS011;41486;52.502;13.486;2023-04-25T02:27:06;6.05;;;1.70;;
55609;SDS011;41486;52.502;13.486;2023-04-25T02:29:34;2.53;;;1.52;;
55609;SDS011;41486;52.502;13.486;2023-04-25T02:32:03;3.95;;;1.88;;
55609;SDS011;41486;52.502;13.486;2023-04-25T02:34:31;2.70;;;1.83;;
55609;SDS011;41486;52.502;13.486;2023-04-25T02:36:59;5.65;;;2.10;;
55609;SDS011;41486;52.502;13.486;2023-04-25T02:39:27;4.40;;;2.13;;
55609;SDS011;41486;52.502;13.486;2023-04-25T02:41:55;2.45;;;1.77;;
55609;SDS011;41486;52.502;13.486;2023-04-25T02:44:25;3.53;;;1.63;;
55609;SDS011;41486;52.502;13.486;2023-04-25T02:46:53;3.80;;;1.65;;
55609;SDS011;41486;52.502;13.486;2023-04-25T02:49:22;2.83;;;1.90;;
55609;SDS011;41486;52.502;13.486;2023-04-25T02:51:51;2.67;;;1.50;;
55609;SDS011;41486;52.502;13.486;2023-04-25T02:54:19;4.00;;;1.95;;
55609;SDS011;41486;52.502;13.486;2023-04-25T02:56:47;2.33;;;1.27;;
55609;SDS011;41486;52.502;13.486;2023-04-25T03:01:51;2.22;;;1.63;;
55609;SDS011;41486;52.502;13.486;2023-04-25T03:04:19;3.17;;;2.03;;
55609;SDS011;41486;52.502;13.486;2023-04-25T03:06:50;3.10;;;1.92;;
55609;SDS011;41486;52.502;13.486;2023-04-25T03:09:19;5.32;;;1.80;;
55609;SDS011;41486;52.502;13.486;2023-04-25T03:11:48;1.77;;;1.48;;
55609;SDS011;41486;52.502;13.486;2023-04-25T03:14:17;2.20;;;1.88;;
55609;SDS011;41486;52.502;13.486;2023-04-25T03:16:45;3.40;;;2.13;;
55609;SDS011;41486;52.502;13.486;2023-04-25T03:19:14;2.70;;;1.90;;
55609;SDS011;41486;52.502;13.486;2023-04-25T03:21:43;3.67;;;1.80;;
55609;SDS011;41486;52.502;13.486;2023-04-25T03:24:12;4.55;;;1.90;;
55609;SDS011;41486;52.502;13.486;2023-04-25T03:26:40;8.15;;;2.20;;
55609;SDS011;41486;52.502;13.486;2023-04-25T03:29:08;3.05;;;2.47;;
55609;SDS011;41486;52.502;13.486;2023-04-25T03:31:37;4.50;;;1.60;;
55609;SDS011;41486;52.502;13.486;2023-04-25T03:34:06;4.55;;;2.22;;
55609;SDS011;41486;52.502;13.486;2023-04-25T03:36:35;5.13;;;2.10;;
55609;SDS011;41486;52.502;13.486;2023-04-25T03:39:06;4.88;;;2.22;;
55609;SDS011;41486;52.502;13.486;2023-04-25T03:41:34;5.35;;;2.58;;
55609;SDS011;41486;52.502;13.486;2023-04-25T03:44:07;5.03;;;1.98;;
55609;SDS011;41486;52.502;13.486;2023-04-25T03:46:35;4.50;;;1.88;;
55609;SDS011;41486;52.502;13.486;2023-04-25T03:49:03;3.65;;;2.22;;
55609;SDS011;41486;52.502;13.486;2023-04-25T03:51:57;3.15;;;2.03;;
55609;SDS011;41486;52.502;13.486;2023-04-25T03:54:25;3.13;;;1.83;;
55609;SDS011;41486;52.502;13.486;2023-04-25T03:57:04;3.85;;;2.40;;
55609;SDS011;41486;52.502;13.486;2023-04-25T03:59:35;3.05;;;2.08;;
55609;SDS011;41486;52.502;13.486;2023-04-25T04:02:05;4.05;;;2.20;;
55609;SDS011;41486;52.502;13.486;2023-04-25T04:04:35;5.50;;;2.15;;
55609;SDS011;41486;52.502;13.486;2023-04-25T04:07:05;6.25;;;2.22;;
55609;SDS011;41486;52.502;13.486;2023-04-25T04:09:35;5.55;;;2.20;;
55609;SDS011;41486;52.502;13.486;2023-04-25T04:12:08;5.75;;;2.08;;
55609;SDS011;41486;52.502;13.486;2023-04-25T04:14:39;3.35;;;2.35;;
55609;SDS011;41486;52.502;13.486;2023-04-25T04:17:08;2.70;;;1.80;;
55609;SDS011;41486;52.502;13.486;2023-04-25T04:19:37;7.00;;;2.40;;
55609;SDS011;41486;52.502;13.486;2023-04-25T04:22:12;6.82;;;2.05;;
55609;SDS011;41486;52.502;13.486;2023-04-25T04:24:40;7.45;;;2.78;;
55609;SDS011;41486;52.502;13.486;2023-04-25T04:27:11;4.53;;;2.28;;
55609;SDS011;41486;52.502;13.486;2023-04-25T04:29:47;2.83;;;1.95;;
55609;SDS011;41486;52.502;13.486;2023-04-25T04:32:22;3.35;;;1.70;;
55609;SDS011;41486;52.502;13.486;2023-04-25T04:34:52;1.83;;;1.42;;
55609;SDS011;41486;52.502;13.486;2023-04-25T04:37:23;4.95;;;2.47;;
55609;SDS011;41486;52.502;13.486;2023-04-25T04:39:51;3.00;;;1.88;;
55609;SDS011;41486;52.502;13.486;2023-04-25T04:42:30;4.38;;;2.50;;
55609;SDS011;41486;52.502;13.486;2023-04-25T04:45:28;3.85;;;1.73;;
55609;SDS011;41486;52.502;13.486;2023-04-25T04:48:10;3.70;;;2.10;;
55609;SDS011;41486;52.502;13.486;2023-04-25T04:50:56;4.35;;;2.05;;
55609;SDS011;41486;52.502;13.486;2023-04-25T04:53:44;3.58;;;2.33;;
55609;SDS011;41486;52.502;13.486;2023-04-25T04:56:17;5.60;;;2.28;;
55609;SDS011;41486;52.502;13.486;2023-04-25T04:58:52;3.15;;;1.90;;
55609;SDS011;41486;52.502;13.486;2023-04-25T05:01:20;3.58;;;2.20;;
55609;SDS011;41486;52.502;13.486;2023-04-25T05:03:55;4.43;;;2.50;;
55609;SDS011;41486;52.502;13.486;2023-04-25T05:06:45;5.40;;;1.60;;
55609;SDS011;41486;52.502;13.486;2023-04-25T05:09:28;12.75;;;2.30;;
55609;SDS011;41486;52.502;13.486;2023-04-25T05:12:19;3.40;;;2.13;;
55609;SDS011;41486;52.502;13.486;2023-04-25T05:15:06;4.20;;;1.85;;
55609;SDS011;41486;52.502;13.486;2023-04-25T05:17:52;5.85;;;2.78;;
55609;SDS011;41486;52.502;13.486;2023-04-25T05:20:31;5.30;;;2.05;;
55609;SDS011;41486;52.502;13.486;2023-04-25T05:23:01;5.80;;;2.97;;
55609;SDS011;41486;52.502;13.486;2023-04-25T05:25:43;5.45;;;2.80;;
55609;SDS011;41486;52.502;13.486;2023-04-25T05:28:20;10.85;;;2.90;;
55609;SDS011;41486;52.502;13.486;2023-04-25T05:31:02;5.55;;;2.00;;
55609;SDS011;41486;52.502;13.486;2023-04-25T05:33:42;3.25;;;2.00;;
55609;SDS011;41486;52.502;13.486;2023-04-25T05:36:10;3.22;;;2.13;;
55609;SDS011;41486;52.502;13.486;2023-04-25T05:38:37;3.38;;;1.98;;
55609;SDS011;41486;52.502;13.486;2023-04-25T05:41:16;3.05;;;1.95;;
55609;SDS011;41486;52.502;13.486;2023-04-25T05:43:48;3.58;;;2.33;;
55609;SDS011;41486;52.502;13.486;2023-04-25T05:46:24;5.13;;;2.60;;
55609;SDS011;41486;52.502;13.486;2023-04-25T05:49:19;1.92;;;1.50;;
55609;SDS011;41486;52.502;13.486;2023-04-25T05:52:02;3.50;;;2.15;;
55609;SDS011;41486;52.502;13.486;2023-04-25T05:54:49;3.72;;;1.85;;
55609;SDS011;41486;52.502;13.486;2023-04-25T05:57:21;8.63;;;1.90;;
55609;SDS011;41486;52.502;13.486;2023-04-25T05:59:51;4.75;;;2.60;;
55609;SDS011;41486;52.502;13.486;2023-04-25T06:02:20;6.88;;;2.42;;
55609;SDS011;41486;52.502;13.486;2023-04-25T06:04:49;6.85;;;2.20;;
55609;SDS011;41486;52.502;13.486;2023-04-25T06:07:18;3.88;;;2.20;;
55609;SDS011;41486;52.502;13.486;2023-04-25T06:09:47;10.20;;;2.05;;
55609;SDS011;41486;52.502;13.486;2023-04-25T06:12:15;4.45;;;2.63;;
55609;SDS011;41486;52.502;13.486;2023-04-25T06:14:45;7.45;;;3.13;;
55609;SDS011;41486;52.502;13.486;2023-04-25T06:17:13;3.83;;;2.38;;
55609;SDS011;41486;52.502;13.486;2023-04-25T06:19:41;3.55;;;2.00;;
55609;SDS011;41486;52.502;13.486;2023-04-25T06:22:09;4.72;;;2.90;;
55609;SDS011;41486;52.502;13.486;2023-04-25T06:24:39;4.38;;;2.05;;
55609;SDS011;41486;52.502;13.486;2023-04-25T06:27:07;3.40;;;2.00;;
55609;SDS011;41486;52.502;13.486;2023-04-25T06:29:35;6.00;;;2.80;;
55609;SDS011;41486;52.502;13.486;2023-04-25T06:32:05;4.28;;;2.47;;
55609;SDS011;41486;52.502;13.486;2023-04-25T06:34:34;8.27;;;2.72;;
55609;SDS011;41486;52.502;13.486;2023-04-25T06:37:02;5.38;;;2.45;;
55609;SDS011;41486;52.502;13.486;2023-04-25T06:39:30;5.35;;;2.42;;
55609;SDS011;41486;52.502;13.486;2023-04-25T06:41:59;6.80;;;2.45;;
55609;SDS011;41486;52.502;13.486;2023-04-25T06:44:44;3.88;;;2.33;;
55609;SDS011;41486;52.502;13.486;2023-04-25T06:47:14;6.57;;;2.55;;
55609;SDS011;41486;52.502;13.486;2023-04-25T06:49:42;5.35;;;2.38;;
55609;SDS011;41486;52.502;13.486;2023-04-25T06:52:11;7.93;;;2.72;;
55609;SDS011;41486;52.502;13.486;2023-04-25T06:54:39;5.50;;;2.53;;
55609;SDS011;41486;52.502;13.486;2023-04-25T06:57:32;4.68;;;2.15;;
55609;SDS011;41486;52.502;13.486;2023-04-25T07:00:17;5.18;;;1.98;;
55609;SDS011;41486;52.502;13.486;2023-04-25T07:02:47;2.28;;;1.92;;
55609;SDS011;41486;52.502;13.486;2023-04-25T07:05:16;3.17;;;1.83;;
55609;SDS011;41486;52.502;13.486;2023-04-25T07:07:45;2.70;;;2.22;;
55609;SDS011;41486;52.502;13.486;2023-04-25T07:10:13;3.45;;;1.98;;
55609;SDS011;41486;52.502;13.486;2023-04-25T07:12:41;5.28;;;2.00;;
55609;SDS011;41486;52.502;13.486;2023-04-25T07:15:09;5.43;;;2.30;;
55609;SDS011;41486;52.502;13.486;2023-04-25T07:17:41;5.20;;;1.95;;
55609;SDS011;41486;52.502;13.486;2023-04-25T07:20:10;4.75;;;2.22;;
55609;SDS011;41486;52.502;13.486;2023-04-25T07:22:39;5.88;;;2.47;;
55609;SDS011;41486;52.502;13.486;2023-04-25T07:25:07;4.25;;;2.60;;
55609;SDS011;41486;52.502;13.486;2023-04-25T07:27:36;4.32;;;2.13;;
55609;SDS011;41486;52.502;13.486;2023-04-25T07:30:13;5.85;;;2.75;;
55609;SDS011;41486;52.502;13.486;2023-04-25T07:32:41;5.03;;;2.97;;
55609;SDS011;41486;52.502;13.486;2023-04-25T07:35:10;3.35;;;2.28;;
55609;SDS011;41486;52.502;13.486;2023-04-25T07:37:42;7.90;;;2.45;;
55609;SDS011;41486;52.502;13.486;2023-04-25T07:40:15;6.72;;;2.40;;
55609;SDS011;41486;52.502;13.486;2023-04-25T07:42:47;5.15;;;1.95;;
55609;SDS011;41486;52.502;13.486;2023-04-25T07:45:25;4.05;;;2.00;;
55609;SDS011;41486;52.502;13.486;2023-04-25T07:47:53;2.90;;;1.77;;
55609;SDS011;41486;52.502;13.486;2023-04-25T07:50:24;7.10;;;2.70;;
55609;SDS011;41486;52.502;13.486;2023-04-25T07:52:52;2.75;;;1.65;;
55609;SDS011;41486;52.502;13.486;2023-04-25T07:55:26;4.68;;;2.33;;
55609;SDS011;41486;52.502;13.486;2023-04-25T08:00:41;5.50;;;1.92;;
55609;SDS011;41486;52.502;13.486;2023-04-25T08:03:35;5.80;;;2.08;;
55609;SDS011;41486;52.502;13.486;2023-04-25T08:06:10;8.32;;;2.10;;
55609;SDS011;41486;52.502;13.486;2023-04-25T08:08:57;5.90;;;2.30;;
55609;SDS011;41486;52.502;13.486;2023-04-25T08:11:32;7.13;;;2.55;;
55609;SDS011;41486;52.502;13.486;2023-04-25T08:14:01;6.00;;;2.42;;
55609;SDS011;41486;52.502;13.486;2023-04-25T08:16:29;7.88;;;2.33;;
55609;SDS011;41486;52.502;13.486;2023-04-25T08:18:58;9.13;;;2.50;;
55609;SDS011;41486;52.502;13.486;2023-04-25T08:21:28;12.02;;;2.05;;
55609;SDS011;41486;52.502;13.486;2023-04-25T08:23:58;3.28;;;1.75;;
55609;SDS011;41486;52.502;13.486;2023-04-25T08:26:32;4.35;;;1.90;;
55609;SDS011;41486;52.502;13.486;2023-04-25T08:29:01;6.75;;;3.08;;
55609;SDS011;41486;52.502;13.486;2023-04-25T08:31:29;7.57;;;2.35;;
55609;SDS011;41486;52.502;13.486;2023-04-25T08:34:00;6.38;;;1.92;;
55609;SDS011;41486;52.502;13.486;2023-04-25T08:36:39;6.78;;;1.90;;
55609;SDS011;41486;52.502;13.486;2023-04-25T08:39:18;7.60;;;2.65;;
55609;SDS011;41486;52.502;13.486;2023-04-25T08:42:09;4.97;;;1.95;;
55609;SDS011;41486;52.502;13.486;2023-04-25T08:44:39;11.25;;;2.72;;
55609;SDS011;41486;52.502;13.486;2023-04-25T08:47:08;9.23;;;2.83;;
55609;SDS011;41486;52.502;13.486;2023-04-25T08:49:45;5.72;;;1.98;;
55609;SDS011;41486;52.502;13.486;2023-04-25T08:52:16;8.73;;;2.00;;
55609;SDS011;41486;52.502;13.486;2023-04-25T08:54:51;8.02;;;2.92;;
55609;SDS011;41486;52.502;13.486;2023-04-25T08:57:21;9.90;;;2.45;;
55609;SDS011;41486;52.502;13.486;2023-04-25T08:59:51;5.65;;;1.98;;
55609;SDS011;41486;52.502;13.486;2023-04-25T09:02:21;7.68;;;2.90;;
55609;SDS011;41486;52.502;13.486;2023-04-25T09:04:53;13.55;;;2.88;;
55609;SDS011;41486;52.502;13.486;2023-04-25T09:07:23;7.18;;;2.38;;
55609;SDS011;41486;52.502;13.486;2023-04-25T09:09:53;6.97;;;1.92;;
55609;SDS011;41486;52.502;13.486;2023-04-25T09:12:25;8.10;;;1.83;;
55609;SDS011;41486;52.502;13.486;2023-04-25T09:15:01;8.02;;;1.80;;
55609;SDS011;41486;52.502;13.486;2023-04-25T09:17:46;8.48;;;1.75;;
55609;SDS011;41486;52.502;13.486;2023-04-25T09:20:23;3.90;;;1.60;;
55609;SDS011;41486;52.502;13.486;2023-04-25T09:23:02;5.97;;;1.92;;
55609;SDS011;41486;52.502;13.486;2023-04-25T09:25:35;3.95;;;1.67;;
55609;SDS011;41486;52.502;13.486;2023-04-25T09:28:06;7.03;;;1.83;;
55609;SDS011;41486;52.502;13.486;2023-04-25T09:30:35;7.07;;;2.00;;
55609;SDS011;41486;52.502;13.486;2023-04-25T09:33:27;7.47;;;1.70;;
55609;SDS011;41486;52.502;13.486;2023-04-25T09:36:01;6.70;;;1.85;;
55609;SDS011;41486;52.502;13.486;2023-04-25T09:38:45;5.57;;;1.55;;
55609;SDS011;41486;52.502;13.486;2023-04-25T09:41:22;5.00;;;1.70;;
55609;SDS011;41486;52.502;13.486;2023-04-25T09:43:56;5.90;;;1.55;;
55609;SDS011;41486;52.502;13.486;2023-04-25T09:46:32;6.50;;;1.40;;
55609;SDS011;41486;52.502;13.486;2023-04-25T09:49:06;6.75;;;1.63;;
55609;SDS011;41486;52.502;13.486;2023-04-25T09:51:54;3.72;;;1.55;;
55609;SDS011;41486;52.502;13.486;2023-04-25T09:54:27;6.00;;;1.60;;
55609;SDS011;41486;52.502;13.486;2023-04-25T09:57:16;5.28;;;1.25;;
55609;SDS011;41486;52.502;13.486;2023-04-25T09:59:46;6.32;;;1.38;;
55609;SDS011;41486;52.502;13.486;2023-04-25T10:02:16;3.72;;;1.45;;
55609;SDS011;41486;52.502;13.486;2023-04-25T10:04:49;2.03;;;1.05;;
55609;SDS011;41486;52.502;13.486;2023-04-25T10:07:30;6.63;;;1.48;;
55609;SDS011;41486;52.502;13.486;2023-04-25T10:10:01;10.65;;;1.92;;
55609;SDS011;41486;52.502;13.486;2023-04-25T10:12:32;4.30;;;1.40;;
55609;SDS011;41486;52.502;13.486;2023-04-25T10:15:01;1.77;;;1.25;;
55609;SDS011;41486;52.502;13.486;2023-04-25T10:17:31;10.13;;;2.00;;
55609;SDS011;41486;52.502;13.486;2023-04-25T10:20:00;4.70;;;1.60;;
55609;SDS011;41486;52.502;13.486;2023-04-25T10:22:32;4.50;;;1.70;;
55609;SDS011;41486;52.502;13.486;2023-04-25T10:25:05;6.13;;;2.40;;
55609;SDS011;41486;52.502;13.486;2023-04-25T10:27:35;5.88;;;1.10;;
55609;SDS011;41486;52.502;13.486;2023-04-25T10:30:03;3.75;;;1.10;;
55609;SDS011;41486;52.502;13.486;2023-04-25T10:32:36;3.58;;;1.25;;
55609;SDS011;41486;52.502;13.486;2023-04-25T10:35:11;2.25;;;1.10;;
55609;SDS011;41486;52.502;13.486;2023-04-25T10:37:57;2.88;;;1.48;;
55609;SDS011;41486;52.502;13.486;2023-04-25T10:40:27;6.30;;;1.50;;
55609;SDS011;41486;52.502;13.486;2023-04-25T10:42:56;7.50;;;2.05;;
55609;SDS011;41486;52.502;13.486;2023-04-25T10:46:12;2.13;;;1.27;;
55609;SDS011;41486;52.502;13.486;2023-04-25T10:48:45;7.15;;;1.52;;
55609;SDS011;41486;52.502;13.486;2023-04-25T10:51:16;6.05;;;1.73;;
55609;SDS011;41486;52.502;13.486;2023-04-25T10:53:46;5.18;;;1.50;;
55609;SDS011;41486;52.502;13.486;2023-04-25T10:56:19;5.55;;;2.00;;
55609;SDS011;41486;52.502;13.486;2023-04-25T10:58:48;4.18;;;1.27;;
55609;SDS011;41486;52.502;13.486;2023-04-25T11:01:20;3.72;;;0.93;;
55609;SDS011;41486;52.502;13.486;2023-04-25T11:03:57;4.53;;;1.27;;
55609;SDS011;41486;52.502;13.486;2023-04-25T11:06:27;2.72;;;1.50;;
55609;SDS011;41486;52.502;13.486;2023-04-25T11:09:03;5.90;;;1.77;;
55609;SDS011;41486;52.502;13.486;2023-04-25T11:11:42;2.72;;;1.20;;
55609;SDS011;41486;52.502;13.486;2023-04-25T11:14:10;6.53;;;0.90;;
55609;SDS011;41486;52.502;13.486;2023-04-25T11:16:38;3.88;;;1.58;;
55609;SDS011;41486;52.502;13.486;2023-04-25T11:19:06;2.35;;;1.42;;
55609;SDS011;41486;52.502;13.486;2023-04-25T11:21:34;6.65;;;1.40;;
55609;SDS011;41486;52.502;13.486;2023-04-25T11:24:02;6.35;;;1.45;;
55609;SDS011;41486;52.502;13.486;2023-04-25T11:26:32;2.97;;;1.20;;
55609;SDS011;41486;52.502;13.486;2023-04-25T11:29:01;3.65;;;1.25;;
55609;SDS011;41486;52.502;13.486;2023-04-25T11:31:32;9.23;;;1.67;;
55609;SDS011;41486;52.502;13.486;2023-04-25T11:34:00;3.85;;;1.42;;
55609;SDS011;41486;52.502;13.486;2023-04-25T11:36:29;2.60;;;1.35;;
55609;SDS011;41486;52.502;13.486;2023-04-25T11:38:57;4.68;;;1.83;;
55609;SDS011;41486;52.502;13.486;2023-04-25T11:41:25;4.05;;;0.85;;
55609;SDS011;41486;52.502;13.486;2023-04-25T11:43:53;5.43;;;1.10;;
55609;SDS011;41486;52.502;13.486;2023-04-25T11:46:23;1.80;;;0.90;;
55609;SDS011;41486;52.502;13.486;2023-04-25T11:48:52;6.38;;;2.05;;
55609;SDS011;41486;52.502;13.486;2023-04-25T11:51:23;1.92;;;0.93;;
55609;SDS011;41486;52.502;13.486;2023-04-25T11:53:51;3.63;;;1.30;;
55609;SDS011;41486;52.502;13.486;2023-04-25T11:56:19;2.90;;;0.75;;
55609;SDS011;41486;52.502;13.486;2023-04-25T11:58:54;3.85;;;1.40;;
55609;SDS011;41486;52.502;13.486;2023-04-25T12:01:29;3.75;;;1.73;;
55609;SDS011;41486;52.502;13.486;2023-04-25T12:04:10;2.40;;;0.85;;
55609;SDS011;41486;52.502;13.486;2023-04-25T12:06:39;3.90;;;1.50;;
55609;SDS011;41486;52.502;13.486;2023-04-25T12:09:09;3.40;;;1.40;;
55609;SDS011;41486;52.502;13.486;2023-04-25T12:11:42;4.57;;;1.17;;
55609;SDS011;41486;52.502;13.486;2023-04-25T12:14:11;5.10;;;1.70;;
55609;SDS011;41486;52.502;13.486;2023-04-25T12:16:41;3.63;;;0.95;;
55609;SDS011;41486;52.502;13.486;2023-04-25T12:19:13;1.65;;;1.00;;
55609;SDS011;41486;52.502;13.486;2023-04-25T12:21:42;2.13;;;1.13;;
55609;SDS011;41486;52.502;13.486;2023-04-25T12:24:25;2.28;;;1.10;;
55609;SDS011;41486;52.502;13.486;2023-04-25T12:26:58;5.15;;;1.27;;
55609;SDS011;41486;52.502;13.486;2023-04-25T12:29:29;5.50;;;1.38;;
55609;SDS011;41486;52.502;13.486;2023-04-25T12:32:15;6.28;;;1.58;;
55609;SDS011;41486;52.502;13.486;2023-04-25T12:34:43;2.25;;;0.95;;
55609;SDS011;41486;52.502;13.486;2023-04-25T12:37:11;1.42;;;0.98;;
55609;SDS011;41486;52.502;13.486;2023-04-25T12:39:40;4.82;;;1.75;;
55609;SDS011;41486;52.502;13.486;2023-04-25T12:42:08;4.47;;;1.35;;
55609;SDS011;41486;52.502;13.486;2023-04-25T12:44:38;4.82;;;1.05;;
55609;SDS011;41486;52.502;13.486;2023-04-25T12:47:06;3.42;;;1.50;;
55609;SDS011;41486;52.502;13.486;2023-04-25T12:49:36;1.35;;;1.00;;
55609;SDS011;41486;52.502;13.486;2023-04-25T12:52:04;2.67;;;1.23;;
55609;SDS011;41486;52.502;13.486;2023-04-25T12:54:33;4.03;;;1.35;;
55609;SDS011;41486;52.502;13.486;2023-04-25T12:57:01;3.25;;;0.90;;
55609;SDS011;41486;52.502;13.486;2023-04-25T12:59:30;1.98;;;1.23;;
55609;SDS011;41486;52.502;13.486;2023-04-25T13:01:58;3.25;;;1.30;;
55609;SDS011;41486;52.502;13.486;2023-04-25T13:04:40;2.75;;;1.48;;
55609;SDS011;41486;52.502;13.486;2023-04-25T13:07:18;1.88;;;1.10;;
55609;SDS011;41486;52.502;13.486;2023-04-25T13:09:49;1.23;;;0.70;;
55609;SDS011;41486;52.502;13.486;2023-04-25T13:12:21;4.90;;;1.40;;
55609;SDS011;41486;52.502;13.486;2023-04-25T13:14:50;4.03;;;0.95;;
55609;SDS011;41486;52.502;13.486;2023-04-25T13:17:20;1.95;;;1.00;;
55609;SDS011;41486;52.502;13.486;2023-04-25T13:19:55;5.22;;;0.82;;
55609;SDS011;41486;52.502;13.486;2023-04-25T13:22:24;2.63;;;0.80;;
55609;SDS011;41486;52.502;13.486;2023-04-25T13:24:56;4.43;;;1.58;;
55609;SDS011;41486;52.502;13.486;2023-04-25T13:27:24;3.75;;;0.80;;
55609;SDS011;41486;52.502;13.486;2023-04-25T13:29:52;2.30;;;0.60;;
55609;SDS011;41486;52.502;13.486;2023-04-25T13:32:20;0.65;;;0.60;;
55609;SDS011;41486;52.502;13.486;2023-04-25T13:34:48;4.25;;;1.15;;
55609;SDS011;41486;52.502;13.486;2023-04-25T13:37:17;3.22;;;1.00;;
55609;SDS011;41486;52.502;13.486;2023-04-25T13:39:45;2.80;;;1.10;;
55609;SDS011;41486;52.502;13.486;2023-04-25T13:42:13;3.55;;;1.60;;
55609;SDS011;41486;52.502;13.486;2023-04-25T13:44:42;3.28;;;1.02;;
55609;SDS011;41486;52.502;13.486;2023-04-25T13:47:10;3.22;;;1.05;;
55609;SDS011;41486;52.502;13.486;2023-04-25T13:49:38;2.85;;;1.00;;
55609;SDS011;41486;52.502;13.486;2023-04-25T13:52:07;1.27;;;0.90;;
55609;SDS011;41486;52.502;13.486;2023-04-25T13:54:36;2.88;;;1.20;;
55609;SDS011;41486;52.502;13.486;2023-04-25T13:57:04;3.78;;;1.05;;
55609;SDS011;41486;52.502;13.486;2023-04-25T13:59:33;2.25;;;0.80;;
55609;SDS011;41486;52.502;13.486;2023-04-25T14:02:01;3.60;;;1.52;;
55609;SDS011;41486;52.502;13.486;2023-04-25T14:04:29;2.83;;;1.52;;
55609;SDS011;41486;52.502;13.486;2023-04-25T14:06:57;1.85;;;1.30;;
55609;SDS011;41486;52.502;13.486;2023-04-25T14:09:26;3.53;;;1.27;;
55609;SDS011;41486;52.502;13.486;2023-04-25T14:11:55;5.63;;;1.08;;
55609;SDS011;41486;52.502;13.486;2023-04-25T14:14:24;1.73;;;0.65;;
55609;SDS011;41486;52.502;13.486;2023-04-25T14:16:52;3.25;;;1.10;;
55609;SDS011;41486;52.502;13.486;2023-04-25T14:19:21;2.58;;;1.67;;
55609;SDS011;41486;52.502;13.486;2023-04-25T14:21:49;2.88;;;1.13;;
55609;SDS011;41486;52.502;13.486;2023-04-25T14:24:18;3.00;;;1.10;;
55609;SDS011;41486;52.502;13.486;2023-04-25T14:26:46;2.92;;;1.08;;
55609;SDS011;41486;52.502;13.486;2023-04-25T14:29:19;4.45;;;1.05;;
55609;SDS011;41486;52.502;13.486;2023-04-25T14:31:47;2.58;;;1.02;;
55609;SDS011;41486;52.502;13.486;2023-04-25T14:34:15;3.40;;;1.42;;
55609;SDS011;41486;52.502;13.486;2023-04-25T14:36:43;1.00;;;0.70;;
55609;SDS011;41486;52.502;13.486;2023-04-25T14:39:12;2.80;;;0.77;;
55609;SDS011;41486;52.502;13.486;2023-04-25T14:41:41;8.05;;;1.58;;
55609;SDS011;41486;52.502;13.486;2023-04-25T14:44:09;2.30;;;1.00;;
55609;SDS011;41486;52.502;13.486;2023-04-25T14:46:38;3.45;;;0.90;;
55609;SDS011;41486;52.502;13.486;2023-04-25T14:49:06;3.47;;;1.00;;
55609;SDS011;41486;52.502;13.486;2023-04-25T14:51:35;0.77;;;0.63;;
55609;SDS011;41486;52.502;13.486;2023-04-25T14:54:03;4.28;;;1.25;;
55609;SDS011;41486;52.502;13.486;2023-04-25T14:56:31;3.35;;;1.15;;
55609;SDS011;41486;52.502;13.486;2023-04-25T14:58:59;1.27;;;0.77;;
55609;SDS011;41486;52.502;13.486;2023-04-25T15:01:27;3.97;;;1.70;;
55609;SDS011;41486;52.502;13.486;2023-04-25T15:03:57;2.80;;;1.00;;
55609;SDS011;41486;52.502;13.486;2023-04-25T15:06:25;2.65;;;1.05;;